sensor_id;sensor_type;location;lat;lon;timestamp;pressure;altitude;pressure_sealevel;temperature;humidity
11349;BME280;5729;43.570;27.826;2023-06-10T00:01:39;98523.16;;;19.73;100.00
11349;BME280;5729;43.570;27.826;2023-06-10T00:04:04;98543.72;;;19.77;100.00
11349;BME280;5729;43.570;27.826;2023-06-10T00:06:33;98538.25;;;19.77;100.00
11349;BME280;5729;43.570;27.826;2023-06-10T00:09:03;98548.41;;;19.77;100.00
11349;BME280;5729;43.570;27.826;2023-06-10T00:11:32;98548.94;;;19.72;100.00
11349;BME280;5729;43.570;27.826;2023-06-10T00:13:58;98549.47;;;19.67;100.00
11349;BME280;5729;43.570;27.826;2023-06-10T00:16:24;98550.75;;;19.62;100.00
11349;BME280;5729;43.570;27.826;2023-06-10T00:18:50;98544.19;;;19.60;100.00
11349;BME280;5729;43.570;27.826;2023-06-10T00:21:21;98539.16;;;19.58;100.00
11349;BME280;5729;43.570;27.826;2023-06-10T00:23:47;98541.09;;;19.57;100.00
11349;BME280;5729;43.570;27.826;2023-06-10T00:26:12;98538.81;;;19.56;100.00
11349;BME280;5729;43.570;27.826;2023-06-10T00:28:38;98540.00;;;19.55;100.00
11349;BME280;5729;43.570;27.826;2023-06-10T00:31:03;98540.00;;;19.55;100.00
11349;BME280;5729;43.570;27.826;2023-06-10T00:33:29;98550.59;;;19.53;100.00
11349;BME280;5729;43.570;27.826;2023-06-10T00:35:55;98536.19;;;19.52;100.00
11349;BME280;5729;43.570;27.826;2023-06-10T00:38:20;98545.56;;;19.51;100.00
11349;BME280;5729;43.570;27.826;2023-06-10T00:40:46;98543.69;;;19.48;100.00
11349;BME280;5729;43.570;27.826;2023-06-10T00:43:11;98547.25;;;19.45;100.00
11349;BME280;5729;43.570;27.826;2023-06-10T00:45:37;98552.34;;;19.43;100.00
11349;BME280;5729;43.570;27.826;2023-06-10T00:48:03;98543.50;;;19.39;100.00
11349;BME280;5729;43.570;27.826;2023-06-10T00:50:29;98556.81;;;19.37;100.00
11349;BME280;5729;43.570;27.826;2023-06-10T00:52:56;98543.66;;;19.32;100.00
11349;BME280;5729;43.570;27.826;2023-06-10T00:55:21;98539.84;;;19.30;100.00
11349;BME280;5729;43.570;27.826;2023-06-10T00:57:48;98534.88;;;19.25;100.00
11349;BME280;5729;43.570;27.826;2023-06-10T01:00:15;98534.38;;;19.13;100.00
11349;BME280;5729;43.570;27.826;2023-06-10T01:02:41;98543.66;;;19.16;100.00
11349;BME280;5729;43.570;27.826;2023-06-10T01:05:08;98543.31;;;19.14;100.00
11349;BME280;5729;43.570;27.826;2023-06-10T01:08:24;98536.75;;;19.11;100.00
11349;BME280;5729;43.570;27.826;2023-06-10T01:10:32;98537.16;;;19.10;100.00
11349;BME280;5729;43.570;27.826;2023-06-10T01:13:00;98543.16;;;19.05;100.00
11349;BME280;5729;43.570;27.826;2023-06-10T01:15:32;98543.66;;;19.00;100.00
11349;BME280;5729;43.570;27.826;2023-06-10T01:18:05;98545.25;;;18.97;100.00
11349;BME280;5729;43.570;27.826;2023-06-10T01:20:34;98537.53;;;18.96;100.00
11349;BME280;5729;43.570;27.826;2023-06-10T01:23:00;98531.72;;;18.94;100.00
11349;BME280;5729;43.570;27.826;2023-06-10T01:25:28;98531.78;;;18.90;100.00
11349;BME280;5729;43.570;27.826;2023-06-10T01:33:42;98540.91;;;18.83;100.00
11349;BME280;5729;43.570;27.826;2023-06-10T01:36:09;98534.41;;;18.77;100.00
11349;BME280;5729;43.570;27.826;2023-06-10T01:38:43;98534.06;;;18.75;100.00
11349;BME280;5729;43.570;27.826;2023-06-10T01:41:10;98525.53;;;18.73;100.00
11349;BME280;5729;43.570;27.826;2023-06-10T01:43:38;98533.28;;;18.75;100.00
11349;BME280;5729;43.570;27.826;2023-06-10T01:46:03;98531.50;;;18.68;100.00
11349;BME280;5729;43.570;27.826;2023-06-10T01:48:29;98535.81;;;18.66;100.00
11349;BME280;5729;43.570;27.826;2023-06-10T01:50:54;98526.53;;;18.63;100.00
11349;BME280;5729;43.570;27.826;2023-06-10T01:53:22;98531.31;;;18.59;100.00
11349;BME280;5729;43.570;27.826;2023-06-10T01:55:47;98523.53;;;18.58;100.00
11349;BME280;5729;43.570;27.826;2023-06-10T01:58:13;98537.22;;;18.54;100.00
11349;BME280;5729;43.570;27.826;2023-06-10T02:00:38;98538.50;;;18.49;100.00
11349;BME280;5729;43.570;27.826;2023-06-10T02:03:04;98536.59;;;18.46;100.00
11349;BME280;5729;43.570;27.826;2023-06-10T02:05:30;98542.91;;;18.43;100.00
11349;BME280;5729;43.570;27.826;2023-06-10T02:07:55;98533.19;;;18.42;100.00
11349;BME280;5729;43.570;27.826;2023-06-10T02:10:21;98537.88;;;18.42;100.00
11349;BME280;5729;43.570;27.826;2023-06-10T02:12:46;98539.91;;;18.38;100.00
11349;BME280;5729;43.570;27.826;2023-06-10T02:15:11;98533.03;;;18.30;100.00
11349;BME280;5729;43.570;27.826;2023-06-10T02:17:37;98527.75;;;18.23;100.00
11349;BME280;5729;43.570;27.826;2023-06-10T02:20:03;98520.25;;;18.07;100.00
11349;BME280;5729;43.570;27.826;2023-06-10T02:22:31;98538.56;;;18.06;100.00
11349;BME280;5729;43.570;27.826;2023-06-10T02:24:57;98537.53;;;18.00;100.00
11349;BME280;5729;43.570;27.826;2023-06-10T02:27:22;98531.72;;;17.98;100.00
11349;BME280;5729;43.570;27.826;2023-06-10T02:29:48;98533.81;;;17.91;100.00
11349;BME280;5729;43.570;27.826;2023-06-10T02:32:13;98524.09;;;17.90;100.00
11349;BME280;5729;43.570;27.826;2023-06-10T02:34:39;98532.69;;;17.88;100.00
11349;BME280;5729;43.570;27.826;2023-06-10T02:37:04;98537.03;;;17.86;100.00
11349;BME280;5729;43.570;27.826;2023-06-10T02:39:30;98535.06;;;17.86;100.00
11349;BME280;5729;43.570;27.826;2023-06-10T02:41:55;98548.34;;;17.84;100.00
11349;BME280;5729;43.570;27.826;2023-06-10T02:44:21;98551.06;;;17.84;100.00
11349;BME280;5729;43.570;27.826;2023-06-10T02:46:46;98549.47;;;17.87;100.00
11349;BME280;5729;43.570;27.826;2023-06-10T02:49:12;98545.19;;;17.86;100.00
11349;BME280;5729;43.570;27.826;2023-06-10T02:51:38;98552.56;;;17.89;100.00
11349;BME280;5729;43.570;27.826;2023-06-10T02:54:04;98554.50;;;17.88;100.00
11349;BME280;5729;43.570;27.826;2023-06-10T02:56:30;98544.78;;;17.87;100.00
11349;BME280;5729;43.570;27.826;2023-06-10T02:58:55;98559.97;;;17.88;100.00
11349;BME280;5729;43.570;27.826;2023-06-10T03:01:21;98557.00;;;17.79;100.00
11349;BME280;5729;43.570;27.826;2023-06-10T03:03:46;98559.84;;;17.72;100.00
11349;BME280;5729;43.570;27.826;2023-06-10T03:06:12;98553.38;;;17.62;100.00
11349;BME280;5729;43.570;27.826;2023-06-10T03:08:39;98544.97;;;17.53;100.00
11349;BME280;5729;43.570;27.826;2023-06-10T03:11:04;98541.84;;;17.55;100.00
11349;BME280;5729;43.570;27.826;2023-06-10T03:13:30;98545.75;;;17.54;100.00
11349;BME280;5729;43.570;27.826;2023-06-10T03:15:56;98541.88;;;17.51;100.00
11349;BME280;5729;43.570;27.826;2023-06-10T03:18:25;98539.16;;;17.51;100.00
11349;BME280;5729;43.570;27.826;2023-06-10T03:20:51;98541.84;;;17.55;100.00
11349;BME280;5729;43.570;27.826;2023-06-10T03:23:17;98546.03;;;17.59;100.00
11349;BME280;5729;43.570;27.826;2023-06-10T03:25:44;98539.66;;;17.69;100.00
11349;BME280;5729;43.570;27.826;2023-06-10T03:28:09;98524.91;;;17.67;100.00
11349;BME280;5729;43.570;27.826;2023-06-10T03:30:35;98534.78;;;17.81;100.00
11349;BME280;5729;43.570;27.826;2023-06-10T03:33:00;98526.47;;;17.88;100.00
11349;BME280;5729;43.570;27.826;2023-06-10T03:35:26;98519.84;;;17.89;100.00
11349;BME280;5729;43.570;27.826;2023-06-10T03:37:52;98527.47;;;17.97;100.00
11349;BME280;5729;43.570;27.826;2023-06-10T03:40:17;98523.06;;;18.03;100.00
11349;BME280;5729;43.570;27.826;2023-06-10T03:42:43;98519.06;;;18.08;100.00
11349;BME280;5729;43.570;27.826;2023-06-10T03:45:09;98525.66;;;18.10;100.00
11349;BME280;5729;43.570;27.826;2023-06-10T03:47:35;98527.59;;;18.10;100.00
11349;BME280;5729;43.570;27.826;2023-06-10T03:50:03;98528.72;;;18.12;100.00
11349;BME280;5729;43.570;27.826;2023-06-10T03:52:29;98518.28;;;18.07;100.00
11349;BME280;5729;43.570;27.826;2023-06-10T03:54:54;98534.91;;;18.17;100.00
11349;BME280;5729;43.570;27.826;2023-06-10T03:57:20;98536.06;;;18.16;100.00
11349;BME280;5729;43.570;27.826;2023-06-10T03:59:45;98540.00;;;18.14;100.00
11349;BME280;5729;43.570;27.826;2023-06-10T04:02:10;98534.91;;;18.17;100.00
11349;BME280;5729;43.570;27.826;2023-06-10T04:04:36;98538.81;;;18.16;100.00
11349;BME280;5729;43.570;27.826;2023-06-10T04:07:03;98539.22;;;18.14;100.00
11349;BME280;5729;43.570;27.826;2023-06-10T04:09:29;98540.69;;;18.19;100.00
11349;BME280;5729;43.570;27.826;2023-06-10T04:11:54;98548.03;;;18.22;100.00
11349;BME280;5729;43.570;27.826;2023-06-10T04:14:20;98541.69;;;18.28;100.00
11349;BME280;5729;43.570;27.826;2023-06-10T04:16:45;98539.22;;;18.34;100.00
11349;BME280;5729;43.570;27.826;2023-06-10T04:19:11;98542.56;;;18.41;100.00
11349;BME280;5729;43.570;27.826;2023-06-10T04:21:36;98540.47;;;18.49;100.00
11349;BME280;5729;43.570;27.826;2023-06-10T04:24:02;98540.03;;;18.50;100.00
11349;BME280;5729;43.570;27.826;2023-06-10T04:26:28;98541.66;;;18.48;100.00
11349;BME280;5729;43.570;27.826;2023-06-10T04:28:53;98538.81;;;18.51;100.00
11349;BME280;5729;43.570;27.826;2023-06-10T04:31:18;98542.31;;;18.52;100.00
11349;BME280;5729;43.570;27.826;2023-06-10T04:33:44;98546.13;;;18.58;100.00
11349;BME280;5729;43.570;27.826;2023-06-10T04:36:10;98549.63;;;18.59;100.00
11349;BME280;5729;43.570;27.826;2023-06-10T04:38:35;98550.00;;;18.61;100.00
11349;BME280;5729;43.570;27.826;2023-06-10T04:41:01;98559.91;;;18.71;100.00
11349;BME280;5729;43.570;27.826;2023-06-10T04:43:27;98551.13;;;18.79;100.00
11349;BME280;5729;43.570;27.826;2023-06-10T04:45:54;98556.44;;;18.86;100.00
11349;BME280;5729;43.570;27.826;2023-06-10T04:48:21;98546.97;;;18.91;100.00
11349;BME280;5729;43.570;27.826;2023-06-10T04:50:46;98545.19;;;19.01;100.00
11349;BME280;5729;43.570;27.826;2023-06-10T04:53:12;98548.00;;;19.13;100.00
11349;BME280;5729;43.570;27.826;2023-06-10T04:55:37;98551.00;;;19.19;100.00
11349;BME280;5729;43.570;27.826;2023-06-10T04:58:03;98556.66;;;19.28;100.00
11349;BME280;5729;43.570;27.826;2023-06-10T05:00:29;98552.13;;;19.38;100.00
11349;BME280;5729;43.570;27.826;2023-06-10T05:02:54;98545.34;;;19.42;100.00
11349;BME280;5729;43.570;27.826;2023-06-10T05:05:21;98550.28;;;19.51;100.00
11349;BME280;5729;43.570;27.826;2023-06-10T05:07:46;98546.16;;;19.59;100.00
11349;BME280;5729;43.570;27.826;2023-06-10T05:10:12;98555.47;;;19.62;100.00
11349;BME280;5729;43.570;27.826;2023-06-10T05:12:40;98557.38;;;19.77;100.00
11349;BME280;5729;43.570;27.826;2023-06-10T05:15:07;98553.59;;;19.87;100.00
11349;BME280;5729;43.570;27.826;2023-06-10T05:17:32;98550.28;;;19.96;100.00
11349;BME280;5729;43.570;27.826;2023-06-10T05:19:58;98549.22;;;20.06;100.00
11349;BME280;5729;43.570;27.826;2023-06-10T05:22:23;98544.63;;;20.16;100.00
11349;BME280;5729;43.570;27.826;2023-06-10T05:24:50;98546.22;;;20.29;100.00
11349;BME280;5729;43.570;27.826;2023-06-10T05:27:16;98538.06;;;20.42;100.00
11349;BME280;5729;43.570;27.826;2023-06-10T05:29:42;98532.59;;;20.55;100.00
11349;BME280;5729;43.570;27.826;2023-06-10T05:32:08;98530.63;;;20.68;100.00
11349;BME280;5729;43.570;27.826;2023-06-10T05:34:33;98532.84;;;20.73;100.00
11349;BME280;5729;43.570;27.826;2023-06-10T05:36:59;98537.00;;;20.78;100.00
11349;BME280;5729;43.570;27.826;2023-06-10T05:39:25;98536.34;;;20.86;100.00
11349;BME280;5729;43.570;27.826;2023-06-10T05:41:50;98529.13;;;20.92;100.00
11349;BME280;5729;43.570;27.826;2023-06-10T05:44:15;98527.13;;;21.06;100.00
11349;BME280;5729;43.570;27.826;2023-06-10T05:46:41;98533.41;;;21.19;100.00
11349;BME280;5729;43.570;27.826;2023-06-10T05:49:06;98537.00;;;21.28;100.00
11349;BME280;5729;43.570;27.826;2023-06-10T05:51:32;98529.09;;;21.43;100.00
11349;BME280;5729;43.570;27.826;2023-06-10T05:53:57;98535.28;;;21.56;100.00
11349;BME280;5729;43.570;27.826;2023-06-10T05:56:23;98522.50;;;21.75;100.00
11349;BME280;5729;43.570;27.826;2023-06-10T05:58:49;98515.94;;;21.72;100.00
11349;BME280;5729;43.570;27.826;2023-06-10T06:01:15;98527.38;;;21.93;100.00
11349;BME280;5729;43.570;27.826;2023-06-10T06:03:40;98521.53;;;22.03;100.00
11349;BME280;5729;43.570;27.826;2023-06-10T06:06:06;98500.03;;;22.02;100.00
11349;BME280;5729;43.570;27.826;2023-06-10T06:08:31;98520.84;;;22.12;100.00
11349;BME280;5729;43.570;27.826;2023-06-10T06:10:57;98517.06;;;22.19;100.00
11349;BME280;5729;43.570;27.826;2023-06-10T06:13:23;98515.16;;;22.28;100.00
11349;BME280;5729;43.570;27.826;2023-06-10T06:15:49;98511.84;;;22.33;100.00
11349;BME280;5729;43.570;27.826;2023-06-10T06:18:15;98505.41;;;22.36;100.00
11349;BME280;5729;43.570;27.826;2023-06-10T06:20:40;98507.00;;;22.46;100.00
11349;BME280;5729;43.570;27.826;2023-06-10T06:23:06;98512.81;;;22.49;100.00
11349;BME280;5729;43.570;27.826;2023-06-10T06:25:33;98508.59;;;22.57;100.00
11349;BME280;5729;43.570;27.826;2023-06-10T06:28:00;98502.53;;;22.71;100.00
11349;BME280;5729;43.570;27.826;2023-06-10T06:30:26;98499.28;;;22.85;100.00
11349;BME280;5729;43.570;27.826;2023-06-10T06:32:51;98500.69;;;22.90;100.00
11349;BME280;5729;43.570;27.826;2023-06-10T06:35:17;98502.38;;;23.05;100.00
11349;BME280;5729;43.570;27.826;2023-06-10T06:37:42;98502.25;;;23.18;100.00
11349;BME280;5729;43.570;27.826;2023-06-10T06:40:08;98489.63;;;23.30;100.00
11349;BME280;5729;43.570;27.826;2023-06-10T06:42:34;98499.13;;;23.47;100.00
11349;BME280;5729;43.570;27.826;2023-06-10T06:44:59;98491.03;;;23.62;100.00
11349;BME280;5729;43.570;27.826;2023-06-10T06:47:25;98494.56;;;23.71;100.00
11349;BME280;5729;43.570;27.826;2023-06-10T06:49:51;98497.59;;;23.82;100.00
11349;BME280;5729;43.570;27.826;2023-06-10T06:52:17;98488.72;;;23.97;100.00
11349;BME280;5729;43.570;27.826;2023-06-10T06:54:42;98491.47;;;24.15;100.00
11349;BME280;5729;43.570;27.826;2023-06-10T06:57:08;98485.22;;;24.23;100.00
11349;BME280;5729;43.570;27.826;2023-06-10T06:59:33;98482.59;;;24.29;100.00
11349;BME280;5729;43.570;27.826;2023-06-10T07:01:58;98483.16;;;24.42;100.00
11349;BME280;5729;43.570;27.826;2023-06-10T07:04:24;98485.41;;;24.53;100.00
11349;BME280;5729;43.570;27.826;2023-06-10T07:06:50;98469.97;;;24.55;100.00
11349;BME280;5729;43.570;27.826;2023-06-10T07:09:15;98475.47;;;24.55;100.00
11349;BME280;5729;43.570;27.826;2023-06-10T07:11:41;98481.28;;;24.57;100.00
11349;BME280;5729;43.570;27.826;2023-06-10T07:14:06;98478.47;;;24.67;92.99
11349;BME280;5729;43.570;27.826;2023-06-10T07:16:32;98480.63;;;24.72;100.00
11349;BME280;5729;43.570;27.826;2023-06-10T07:18:58;98472.59;;;24.83;100.00
11349;BME280;5729;43.570;27.826;2023-06-10T07:21:23;98480.06;;;24.91;99.68
11349;BME280;5729;43.570;27.826;2023-06-10T07:23:49;98483.56;;;25.01;100.00
11349;BME280;5729;43.570;27.826;2023-06-10T07:26:17;98478.75;;;25.11;95.13
11349;BME280;5729;43.570;27.826;2023-06-10T07:28:43;98484.84;;;25.15;100.00
11349;BME280;5729;43.570;27.826;2023-06-10T07:31:08;98480.75;;;25.34;100.00
11349;BME280;5729;43.570;27.826;2023-06-10T07:33:34;98483.34;;;25.38;93.40
11349;BME280;5729;43.570;27.826;2023-06-10T07:35:59;98482.88;;;25.54;95.47
11349;BME280;5729;43.570;27.826;2023-06-10T07:38:25;98479.72;;;25.70;99.48
11349;BME280;5729;43.570;27.826;2023-06-10T07:40:52;98476.97;;;25.70;99.34
11349;BME280;5729;43.570;27.826;2023-06-10T07:43:18;98479.69;;;25.94;83.58
11349;BME280;5729;43.570;27.826;2023-06-10T07:45:44;98478.72;;;26.12;85.14
11349;BME280;5729;43.570;27.826;2023-06-10T07:48:09;98481.09;;;26.19;81.16
11349;BME280;5729;43.570;27.826;2023-06-10T07:50:35;98479.91;;;26.34;91.71
11349;BME280;5729;43.570;27.826;2023-06-10T07:53:01;98470.38;;;26.35;94.21
11349;BME280;5729;43.570;27.826;2023-06-10T07:55:26;98477.50;;;26.57;89.39
11349;BME280;5729;43.570;27.826;2023-06-10T07:57:52;98475.38;;;26.66;89.17
11349;BME280;5729;43.570;27.826;2023-06-10T08:00:18;98479.53;;;26.76;95.50
11349;BME280;5729;43.570;27.826;2023-06-10T08:02:44;98468.94;;;26.90;90.26
11349;BME280;5729;43.570;27.826;2023-06-10T08:05:09;98478.03;;;27.10;85.15
11349;BME280;5729;43.570;27.826;2023-06-10T08:07:35;98482.13;;;27.15;87.97
11349;BME280;5729;43.570;27.826;2023-06-10T08:10:01;98485.72;;;27.21;87.93
11349;BME280;5729;43.570;27.826;2023-06-10T08:12:26;98482.34;;;27.32;82.23
11349;BME280;5729;43.570;27.826;2023-06-10T08:14:52;98476.94;;;27.43;88.58
11349;BME280;5729;43.570;27.826;2023-06-10T08:17:17;98486.91;;;27.55;84.17
11349;BME280;5729;43.570;27.826;2023-06-10T08:19:43;98484.72;;;27.59;75.79
11349;BME280;5729;43.570;27.826;2023-06-10T08:22:08;98492.25;;;27.59;78.94
11349;BME280;5729;43.570;27.826;2023-06-10T08:24:35;98476.75;;;27.67;70.38
11349;BME280;5729;43.570;27.826;2023-06-10T08:27:00;98479.06;;;27.94;92.09
11349;BME280;5729;43.570;27.826;2023-06-10T08:29:25;98487.19;;;28.55;81.43
11349;BME280;5729;43.570;27.826;2023-06-10T08:31:51;98478.19;;;29.45;80.69
11349;BME280;5729;43.570;27.826;2023-06-10T08:34:17;98481.16;;;30.46;63.58
11349;BME280;5729;43.570;27.826;2023-06-10T08:36:43;98480.59;;;31.14;77.81
11349;BME280;5729;43.570;27.826;2023-06-10T08:39:09;98477.94;;;31.44;50.69
11349;BME280;5729;43.570;27.826;2023-06-10T08:41:37;98477.44;;;31.40;44.90
11349;BME280;5729;43.570;27.826;2023-06-10T08:44:18;98478.53;;;31.20;47.39
11349;BME280;5729;43.570;27.826;2023-06-10T08:46:47;98481.63;;;31.00;50.78
11349;BME280;5729;43.570;27.826;2023-06-10T08:49:18;98471.41;;;31.36;52.88
11349;BME280;5729;43.570;27.826;2023-06-10T08:51:50;98473.28;;;32.75;49.07
11349;BME280;5729;43.570;27.826;2023-06-10T08:54:26;98468.16;;;34.54;37.69
11349;BME280;5729;43.570;27.826;2023-06-10T08:56:54;98458.94;;;35.64;40.16
11349;BME280;5729;43.570;27.826;2023-06-10T08:59:21;98461.00;;;36.81;39.07
11349;BME280;5729;43.570;27.826;2023-06-10T09:01:47;98456.53;;;38.17;46.17
11349;BME280;5729;43.570;27.826;2023-06-10T09:04:13;98452.72;;;39.20;29.45
11349;BME280;5729;43.570;27.826;2023-06-10T09:06:40;98447.03;;;39.43;30.06
11349;BME280;5729;43.570;27.826;2023-06-10T09:09:06;98439.63;;;39.55;32.64
11349;BME280;5729;43.570;27.826;2023-06-10T09:11:32;98446.34;;;39.68;33.26
11349;BME280;5729;43.570;27.826;2023-06-10T09:13:58;98435.19;;;39.37;34.78
11349;BME280;5729;43.570;27.826;2023-06-10T09:16:26;98448.66;;;38.83;31.54
11349;BME280;5729;43.570;27.826;2023-06-10T09:18:52;98444.47;;;37.86;30.89
11349;BME280;5729;43.570;27.826;2023-06-10T09:21:23;98447.63;;;36.25;30.72
11349;BME280;5729;43.570;27.826;2023-06-10T09:23:49;98443.81;;;34.94;34.09
11349;BME280;5729;43.570;27.826;2023-06-10T09:26:15;98443.31;;;34.18;37.29
11349;BME280;5729;43.570;27.826;2023-06-10T09:28:43;98444.03;;;33.49;39.86
11349;BME280;5729;43.570;27.826;2023-06-10T09:31:09;98436.78;;;32.98;41.88
11349;BME280;5729;43.570;27.826;2023-06-10T09:33:38;98438.38;;;32.63;46.84
11349;BME280;5729;43.570;27.826;2023-06-10T09:36:04;98437.72;;;32.52;49.83
11349;BME280;5729;43.570;27.826;2023-06-10T09:38:31;98434.63;;;32.61;45.47
11349;BME280;5729;43.570;27.826;2023-06-10T09:40:57;98435.22;;;33.02;44.50
11349;BME280;5729;43.570;27.826;2023-06-10T09:43:38;98430.06;;;33.68;46.57
11349;BME280;5729;43.570;27.826;2023-06-10T09:46:04;98431.44;;;34.44;36.57
11349;BME280;5729;43.570;27.826;2023-06-10T09:48:29;98427.41;;;35.24;48.29
11349;BME280;5729;43.570;27.826;2023-06-10T09:50:59;98424.31;;;36.58;38.92
11349;BME280;5729;43.570;27.826;2023-06-10T09:53:25;98433.91;;;37.63;31.58
11349;BME280;5729;43.570;27.826;2023-06-10T09:55:52;98424.28;;;38.33;35.78
11349;BME280;5729;43.570;27.826;2023-06-10T09:58:17;98428.19;;;38.83;31.83
11349;BME280;5729;43.570;27.826;2023-06-10T10:00:43;98414.31;;;38.77;30.90
11349;BME280;5729;43.570;27.826;2023-06-10T10:03:08;98411.34;;;38.53;30.00
11349;BME280;5729;43.570;27.826;2023-06-10T10:05:34;98419.75;;;37.99;30.94
11349;BME280;5729;43.570;27.826;2023-06-10T10:07:59;98423.81;;;36.67;30.22
11349;BME280;5729;43.570;27.826;2023-06-10T10:10:25;98425.06;;;35.62;32.78
11349;BME280;5729;43.570;27.826;2023-06-10T10:12:54;98407.41;;;34.81;36.38
11349;BME280;5729;43.570;27.826;2023-06-10T10:15:21;98415.22;;;34.69;38.59
11349;BME280;5729;43.570;27.826;2023-06-10T10:18:06;98415.66;;;34.73;42.93
11349;BME280;5729;43.570;27.826;2023-06-10T10:20:33;98403.94;;;34.75;40.89
11349;BME280;5729;43.570;27.826;2023-06-10T10:23:02;98406.53;;;34.73;37.23
11349;BME280;5729;43.570;27.826;2023-06-10T10:25:32;98417.94;;;35.14;36.79
11349;BME280;5729;43.570;27.826;2023-06-10T10:28:09;98407.50;;;35.75;35.47
11349;BME280;5729;43.570;27.826;2023-06-10T10:30:40;98390.91;;;36.47;38.38
11349;BME280;5729;43.570;27.826;2023-06-10T10:35:57;98390.63;;;37.74;34.48
11349;BME280;5729;43.570;27.826;2023-06-10T10:38:23;98401.72;;;37.79;32.64
11349;BME280;5729;43.570;27.826;2023-06-10T10:40:49;98396.28;;;37.30;31.76
11349;BME280;5729;43.570;27.826;2023-06-10T10:43:16;98394.22;;;37.23;30.93
11349;BME280;5729;43.570;27.826;2023-06-10T10:45:42;98396.16;;;37.43;38.79
11349;BME280;5729;43.570;27.826;2023-06-10T10:48:08;98390.00;;;37.53;42.17
11349;BME280;5729;43.570;27.826;2023-06-10T10:50:38;98391.38;;;36.80;34.17
11349;BME280;5729;43.570;27.826;2023-06-10T10:53:05;98393.91;;;36.00;33.62
11349;BME280;5729;43.570;27.826;2023-06-10T10:55:31;98394.03;;;35.26;32.58
11349;BME280;5729;43.570;27.826;2023-06-10T10:58:15;98395.66;;;34.82;34.59
11349;BME280;5729;43.570;27.826;2023-06-10T11:01:15;98392.31;;;34.71;33.75
11349;BME280;5729;43.570;27.826;2023-06-10T11:03:45;98384.97;;;33.96;33.09
11349;BME280;5729;43.570;27.826;2023-06-10T11:06:17;98388.38;;;33.33;36.79
11349;BME280;5729;43.570;27.826;2023-06-10T11:11:20;98385.81;;;33.53;42.70
11349;BME280;5729;43.570;27.826;2023-06-10T11:16:27;98376.13;;;34.37;35.35
11349;BME280;5729;43.570;27.826;2023-06-10T11:18:54;98377.97;;;34.48;36.87
11349;BME280;5729;43.570;27.826;2023-06-10T11:21:20;98375.94;;;34.62;35.64
11349;BME280;5729;43.570;27.826;2023-06-10T11:23:49;98373.78;;;34.54;37.92
11349;BME280;5729;43.570;27.826;2023-06-10T11:26:19;98369.69;;;34.55;40.72
11349;BME280;5729;43.570;27.826;2023-06-10T11:31:25;98360.50;;;33.65;37.59
11349;BME280;5729;43.570;27.826;2023-06-10T11:33:55;98358.81;;;33.24;37.05
11349;BME280;5729;43.570;27.826;2023-06-10T11:36:21;98359.41;;;32.74;39.17
11349;BME280;5729;43.570;27.826;2023-06-10T11:38:47;98349.81;;;32.21;38.60
11349;BME280;5729;43.570;27.826;2023-06-10T11:41:17;98356.31;;;31.99;41.39
11349;BME280;5729;43.570;27.826;2023-06-10T11:43:45;98357.50;;;31.73;41.32
11349;BME280;5729;43.570;27.826;2023-06-10T11:46:14;98355.16;;;31.48;41.47
11349;BME280;5729;43.570;27.826;2023-06-10T11:48:54;98355.31;;;31.20;45.93
11349;BME280;5729;43.570;27.826;2023-06-10T11:51:20;98352.53;;;31.20;44.94
11349;BME280;5729;43.570;27.826;2023-06-10T11:53:49;98348.97;;;31.25;48.18
11349;BME280;5729;43.570;27.826;2023-06-10T11:56:22;98335.16;;;31.44;52.35
11349;BME280;5729;43.570;27.826;2023-06-10T11:59:04;98343.22;;;32.18;53.50
11349;BME280;5729;43.570;27.826;2023-06-10T12:01:33;98327.00;;;33.08;57.89
11349;BME280;5729;43.570;27.826;2023-06-10T12:04:00;98333.16;;;34.08;55.50
11349;BME280;5729;43.570;27.826;2023-06-10T12:06:26;98330.00;;;34.83;40.55
11349;BME280;5729;43.570;27.826;2023-06-10T12:08:53;98328.50;;;35.29;42.08
11349;BME280;5729;43.570;27.826;2023-06-10T12:11:18;98321.72;;;35.59;37.12
11349;BME280;5729;43.570;27.826;2023-06-10T12:13:47;98321.88;;;35.74;31.47
11349;BME280;5729;43.570;27.826;2023-06-10T12:16:16;98320.97;;;35.79;32.70
11349;BME280;5729;43.570;27.826;2023-06-10T12:18:43;98311.66;;;36.05;42.41
11349;BME280;5729;43.570;27.826;2023-06-10T12:21:20;98311.19;;;35.93;31.87
11349;BME280;5729;43.570;27.826;2023-06-10T12:26:48;98310.06;;;34.87;30.47
11349;BME280;5729;43.570;27.826;2023-06-10T12:29:21;98307.44;;;34.10;29.84
11349;BME280;5729;43.570;27.826;2023-06-10T12:31:55;98305.72;;;33.43;31.42
11349;BME280;5729;43.570;27.826;2023-06-10T12:34:31;98299.78;;;33.14;30.60
11349;BME280;5729;43.570;27.826;2023-06-10T12:36:57;98307.34;;;32.58;29.49
11349;BME280;5729;43.570;27.826;2023-06-10T12:39:23;98310.28;;;32.41;33.22
11349;BME280;5729;43.570;27.826;2023-06-10T12:41:49;98296.84;;;32.64;35.80
11349;BME280;5729;43.570;27.826;2023-06-10T12:44:15;98297.41;;;33.18;36.98
11349;BME280;5729;43.570;27.826;2023-06-10T12:46:40;98296.34;;;33.91;37.17
11349;BME280;5729;43.570;27.826;2023-06-10T12:49:06;98289.09;;;34.41;31.19
11349;BME280;5729;43.570;27.826;2023-06-10T12:51:31;98284.22;;;34.54;30.30
11349;BME280;5729;43.570;27.826;2023-06-10T12:53:57;98296.31;;;34.36;29.67
11349;BME280;5729;43.570;27.826;2023-06-10T12:56:23;98277.38;;;34.29;28.51
11349;BME280;5729;43.570;27.826;2023-06-10T12:58:49;98290.06;;;34.30;29.51
11349;BME280;5729;43.570;27.826;2023-06-10T13:01:14;98274.69;;;34.37;32.54
11349;BME280;5729;43.570;27.826;2023-06-10T13:03:40;98285.13;;;34.49;28.09
11349;BME280;5729;43.570;27.826;2023-06-10T13:06:06;98280.69;;;34.54;29.31
11349;BME280;5729;43.570;27.826;2023-06-10T13:08:32;98288.53;;;34.69;30.06
11349;BME280;5729;43.570;27.826;2023-06-10T13:10:58;98289.28;;;34.69;29.03
11349;BME280;5729;43.570;27.826;2023-06-10T13:13:24;98282.31;;;34.63;30.13